createdAt,value
2018-08-10T00:00:34.961Z,99.90
2018-08-10T00:05:38.680Z,99.90
2018-08-10T00:10:42.055Z,99.90
2018-08-10T00:15:45.229Z,99.90
2018-08-10T00:20:48.412Z,99.90
2018-08-10T00:25:51.608Z,99.90
2018-08-10T00:30:55.589Z,99.90
2018-08-10T00:35:58.748Z,99.90
2018-08-10T00:41:01.906Z,99.90
2018-08-10T00:46:05.172Z,99.90
2018-08-10T00:51:09.093Z,99.90
2018-08-10T00:56:12.202Z,99.90
2018-08-10T01:01:15.270Z,99.90
2018-08-10T01:06:18.409Z,99.90
2018-08-10T01:11:21.610Z,99.90
2018-08-10T01:16:24.811Z,99.90
2018-08-10T01:21:27.977Z,99.90
2018-08-10T01:26:31.086Z,99.90
2018-08-10T01:31:34.360Z,99.90
2018-08-10T01:36:37.458Z,99.90
2018-08-10T01:41:40.578Z,99.90
2018-08-10T01:46:43.642Z,99.90
2018-08-10T01:51:46.839Z,99.90
2018-08-10T01:56:49.933Z,99.90
2018-08-10T02:01:52.963Z,99.90
2018-08-10T02:06:56.044Z,99.90
2018-08-10T02:11:59.196Z,99.90
2018-08-10T02:17:02.325Z,99.90
2018-08-10T02:22:05.436Z,99.90
2018-08-10T02:27:08.504Z,99.90
2018-08-10T02:32:11.609Z,99.90
2018-08-10T02:37:14.620Z,99.90
2018-08-10T02:42:17.747Z,99.90
2018-08-10T02:47:23.124Z,99.90
2018-08-10T02:52:26.180Z,99.90
2018-08-10T02:57:29.336Z,99.90
2018-08-10T03:02:32.460Z,99.90
2018-08-10T03:07:35.608Z,99.90
2018-08-10T03:12:38.682Z,99.90
2018-08-10T03:17:41.999Z,99.90
2018-08-10T03:22:45.063Z,99.90
2018-08-10T03:27:48.119Z,99.90
2018-08-10T03:32:51.176Z,99.90
2018-08-10T03:37:54.299Z,99.90
2018-08-10T03:42:57.411Z,99.90
2018-08-10T03:48:00.602Z,99.90
2018-08-10T03:53:04.825Z,99.90
2018-08-10T03:58:07.937Z,99.90
2018-08-10T04:03:11.090Z,99.90
2018-08-10T04:08:14.135Z,99.90
2018-08-10T04:13:17.238Z,99.90
2018-08-10T04:18:20.360Z,99.90
2018-08-10T04:23:24.477Z,99.90
2018-08-10T04:28:27.572Z,99.90
2018-08-10T04:33:30.627Z,99.90
2018-08-10T04:38:33.781Z,99.90
2018-08-10T04:43:36.768Z,99.90
2018-08-10T04:48:39.807Z,99.90
2018-08-10T04:53:42.901Z,99.90
2018-08-10T04:58:46.012Z,99.90
2018-08-10T05:03:49.126Z,99.90
2018-08-10T05:08:52.288Z,99.90
2018-08-10T05:13:55.375Z,99.90
2018-08-10T05:18:58.545Z,99.90
2018-08-10T05:24:01.636Z,99.90
2018-08-10T05:29:04.817Z,99.90
2018-08-10T05:34:07.909Z,99.90
2018-08-10T05:39:11.913Z,99.90
2018-08-10T05:44:15.052Z,99.90
2018-08-10T05:49:18.120Z,99.90
2018-08-10T05:54:21.221Z,99.90
2018-08-10T05:59:24.332Z,99.90
2018-08-10T06:04:27.405Z,99.90
2018-08-10T06:09:30.487Z,99.90
2018-08-10T06:14:34.595Z,99.90
2018-08-10T06:19:37.854Z,99.90
2018-08-10T06:24:41.163Z,99.90
2018-08-10T06:29:44.214Z,99.90
2018-08-10T06:34:47.427Z,99.90
2018-08-10T06:39:51.367Z,99.90
2018-08-10T06:44:54.897Z,99.90
2018-08-10T06:49:57.938Z,99.90
2018-08-10T06:55:01.379Z,99.90
2018-08-10T07:00:05.491Z,99.90
2018-08-10T07:05:09.042Z,99.90
2018-08-10T07:10:12.097Z,99.90
2018-08-10T07:15:15.301Z,99.90
2018-08-10T07:20:19.129Z,99.90
2018-08-10T07:25:22.626Z,99.90
2018-08-10T07:30:25.978Z,99.90
2018-08-10T07:35:29.064Z,99.90
2018-08-10T07:40:32.281Z,99.90
2018-08-10T07:45:35.368Z,99.90
2018-08-10T07:50:38.632Z,99.90
2018-08-10T07:55:41.752Z,99.90
2018-08-10T08:00:44.980Z,99.90
2018-08-10T08:05:48.238Z,99.90
2018-08-10T08:10:51.551Z,99.90
2018-08-10T08:15:56.523Z,99.90
2018-08-10T08:21:03.607Z,99.90
2018-08-10T08:26:06.814Z,99.90
2018-08-10T08:31:10.114Z,99.90
2018-08-10T08:36:13.473Z,99.90
2018-08-10T08:41:16.562Z,99.90
2018-08-10T08:46:19.912Z,99.90
2018-08-10T08:51:24.498Z,99.90
2018-08-10T08:56:31.141Z,99.90
2018-08-10T09:01:34.453Z,99.90
2018-08-10T09:06:37.550Z,99.90
2018-08-10T09:11:42.131Z,99.90
2018-08-10T09:16:45.180Z,99.90
2018-08-10T09:21:48.531Z,99.90
2018-08-10T09:26:52.852Z,99.90
2018-08-10T09:31:57.050Z,99.90
2018-08-10T09:37:01.679Z,99.90
2018-08-10T09:42:05.197Z,99.90
2018-08-10T09:47:09.226Z,99.90
2018-08-10T09:52:12.990Z,99.70
2018-08-10T09:58:20.393Z,99.80
2018-08-10T10:03:25.477Z,98.80
2018-08-10T10:08:28.770Z,98.30
2018-08-10T10:13:32.316Z,96.80
2018-08-10T10:18:35.695Z,96.30
2018-08-10T10:23:38.792Z,96.20
2018-08-10T10:28:41.891Z,95.50
2018-08-10T10:33:45.195Z,95.60
2018-08-10T10:38:48.352Z,93.10
2018-08-10T10:43:51.444Z,92.80
2018-08-10T10:48:54.642Z,92.90
2018-08-10T10:53:57.751Z,93.20
2018-08-10T10:59:00.979Z,92.70
2018-08-10T11:04:04.198Z,92.90
2018-08-10T11:09:08.739Z,90.70
2018-08-10T11:14:11.989Z,91.50
2018-08-10T11:19:15.094Z,91.20
2018-08-10T11:24:18.266Z,90.90
2018-08-10T11:29:21.551Z,90.10
2018-08-10T11:34:24.823Z,90.70
2018-08-10T11:39:28.038Z,89.40
2018-08-10T11:44:31.491Z,87.20
2018-08-10T11:49:34.650Z,86.40
2018-08-10T11:54:37.858Z,86.60
2018-08-10T11:59:40.933Z,85.10
2018-08-10T12:04:44.010Z,85.00
2018-08-10T12:09:47.310Z,85.40
2018-08-10T12:14:50.398Z,82.10
2018-08-10T12:19:53.679Z,79.60
2018-08-10T12:24:56.879Z,83.30
2018-08-10T12:30:00.137Z,83.10
2018-08-10T12:35:03.528Z,84.80
2018-08-10T12:40:06.863Z,85.20
2018-08-10T12:45:10.135Z,81.00
2018-08-10T12:50:13.375Z,78.40
2018-08-10T12:55:16.489Z,79.00
2018-08-10T13:00:19.750Z,77.80
2018-08-10T13:05:22.946Z,80.60
2018-08-10T13:10:26.170Z,78.70
2018-08-10T13:15:29.438Z,79.10
2018-08-10T13:20:32.655Z,77.30
2018-08-10T13:25:35.857Z,77.50
2018-08-10T13:30:38.964Z,78.90
2018-08-10T13:35:42.091Z,76.80
2018-08-10T13:40:45.180Z,76.50
2018-08-10T13:45:48.247Z,75.90
2018-08-10T13:50:51.432Z,72.50
2018-08-10T13:55:54.591Z,75.50
2018-08-10T14:00:57.883Z,71.00
2018-08-10T14:06:00.993Z,71.30
2018-08-10T14:11:04.105Z,72.80
2018-08-10T14:16:07.218Z,71.80
2018-08-10T14:21:10.344Z,71.90
2018-08-10T14:26:14.555Z,71.70
2018-08-10T14:31:17.745Z,71.60
2018-08-10T14:36:20.816Z,70.70
2018-08-10T14:41:24.034Z,71.00
2018-08-10T14:46:27.094Z,70.50
2018-08-10T14:51:30.381Z,70.40
2018-08-10T14:56:33.491Z,68.50
2018-08-10T15:01:37.707Z,69.50
2018-08-10T15:06:40.776Z,67.30
2018-08-10T15:11:44.447Z,66.80
2018-08-10T15:16:47.644Z,67.20
2018-08-10T15:21:50.797Z,67.20
2018-08-10T15:26:54.152Z,64.90
2018-08-10T15:31:57.434Z,67.30
2018-08-10T15:37:00.659Z,66.90
2018-08-10T15:42:03.823Z,65.20
2018-08-10T15:47:09.205Z,64.90
2018-08-10T15:52:19.055Z,66.20
2018-08-10T15:57:24.274Z,66.20
2018-08-10T16:02:27.358Z,66.20
2018-08-10T16:07:30.511Z,64.50
2018-08-10T16:12:33.635Z,64.30
2018-08-10T16:17:37.176Z,65.20
2018-08-10T16:22:40.359Z,65.00
2018-08-10T16:27:44.174Z,65.00
2018-08-10T16:32:47.336Z,64.00
2018-08-10T16:37:50.947Z,63.70
2018-08-10T16:42:54.147Z,62.70
2018-08-10T16:47:57.368Z,65.20
2018-08-10T16:53:00.685Z,62.90
2018-08-10T16:58:05.944Z,63.50
2018-08-10T17:03:09.126Z,65.60
2018-08-10T17:08:12.302Z,65.50
2018-08-10T17:13:15.733Z,64.50
2018-08-10T17:19:22.256Z,65.00
2018-08-10T17:24:25.398Z,65.40
2018-08-10T17:29:28.602Z,65.30
2018-08-10T17:34:32.676Z,65.30
2018-08-10T17:39:35.815Z,65.90
2018-08-10T17:50:20.160Z,66.20
2018-08-10T17:55:23.590Z,67.50
2018-08-10T18:00:28.609Z,67.60
2018-08-10T18:05:31.897Z,65.40
2018-08-10T18:10:35.137Z,66.00
2018-08-10T18:15:38.557Z,67.40
2018-08-10T18:20:41.911Z,69.60
2018-08-10T18:25:45.266Z,69.50
2018-08-10T18:30:50.418Z,72.30
2018-08-10T18:35:53.529Z,72.40
2018-08-10T18:40:57.765Z,73.90
2018-08-10T18:46:01.069Z,74.70
2018-08-10T18:51:04.226Z,75.20
2018-08-10T18:56:08.152Z,76.50
2018-08-10T19:01:11.245Z,77.30
2018-08-10T19:06:14.376Z,80.80
2018-08-10T19:11:17.613Z,83.40
2018-08-10T19:16:20.799Z,85.50
2018-08-10T19:21:23.948Z,88.70
2018-08-10T19:26:27.446Z,90.80
2018-08-10T19:31:34.174Z,92.10
2018-08-10T19:36:37.227Z,95.00
2018-08-10T19:41:40.421Z,97.60
2018-08-10T19:46:43.651Z,98.50
2018-08-10T19:51:46.737Z,99.90
2018-08-10T19:56:49.968Z,99.90
2018-08-10T20:01:54.551Z,99.90
2018-08-10T20:06:57.844Z,99.90
2018-08-10T20:12:04.994Z,99.90
2018-08-10T20:17:09.551Z,99.90
2018-08-10T20:22:16.166Z,99.90
2018-08-10T20:27:19.642Z,99.90
2018-08-10T20:32:23.145Z,99.90
2018-08-10T20:37:26.585Z,99.90
2018-08-10T20:42:29.728Z,99.90
2018-08-10T20:47:33.090Z,99.90
2018-08-10T20:52:36.360Z,99.90
2018-08-10T20:57:45.843Z,99.90
2018-08-10T21:02:49.755Z,99.90
2018-08-10T21:07:53.908Z,99.90
2018-08-10T21:12:57.319Z,99.90
2018-08-10T21:18:00.346Z,99.90
2018-08-10T21:23:03.658Z,99.90
2018-08-10T21:28:06.772Z,99.90
2018-08-10T21:33:10.023Z,99.90
2018-08-10T21:38:13.158Z,99.90
2018-08-10T21:43:16.267Z,99.90
2018-08-10T21:48:19.315Z,99.90
2018-08-10T21:53:22.486Z,99.90
2018-08-10T21:58:25.736Z,99.90
2018-08-10T22:03:29.068Z,99.90
2018-08-10T22:08:32.957Z,99.90
2018-08-10T22:13:41.600Z,99.90
2018-08-10T22:18:50.111Z,99.90
2018-08-10T22:23:53.315Z,99.90
2018-08-10T22:28:56.552Z,99.90
2018-08-10T22:33:59.798Z,99.90
2018-08-10T22:39:03.254Z,99.90
2018-08-10T22:44:06.425Z,99.90
2018-08-10T22:49:09.537Z,99.90
2018-08-10T22:54:12.580Z,99.90
2018-08-10T22:59:15.714Z,99.90
2018-08-10T23:04:18.880Z,99.90
2018-08-10T23:09:21.932Z,99.90
2018-08-10T23:14:25.138Z,99.90
2018-08-10T23:19:28.391Z,99.90
2018-08-10T23:24:31.607Z,99.90
2018-08-10T23:29:34.689Z,99.90
2018-08-10T23:34:38.923Z,99.90
2018-08-10T23:39:42.028Z,99.90
2018-08-10T23:44:45.124Z,99.90
2018-08-10T23:49:49.277Z,99.90
2018-08-10T23:54:52.371Z,99.90
2018-08-10T23:59:55.468Z,99.90
